createdAt,value
2018-05-14T00:02:44.723Z,100654.47
2018-05-14T00:07:39.074Z,100649.22
2018-05-14T00:12:34.220Z,100642.02
2018-05-14T00:17:28.614Z,100638.73
2018-05-14T00:22:28.018Z,100639.35
2018-05-14T00:27:23.191Z,100628.23
2018-05-14T00:32:17.568Z,100637.31
2018-05-14T00:37:11.927Z,100624.34
2018-05-14T00:42:06.359Z,100622.55
2018-05-14T00:47:01.643Z,100609.22
2018-05-14T00:51:56.036Z,100622.50
2018-05-14T00:56:50.409Z,100621.05
2018-05-14T01:02:00.309Z,100608.55
2018-05-14T01:06:54.693Z,100610.75
2018-05-14T01:11:49.218Z,100615.60
2018-05-14T01:16:43.594Z,100605.53
2018-05-14T01:21:37.959Z,100604.25
2018-05-14T01:26:33.095Z,100595.98
2018-05-14T01:31:28.576Z,100600.99
2018-05-14T01:36:22.989Z,100600.72
2018-05-14T01:41:17.357Z,100601.62
2018-05-14T01:46:11.831Z,100596.25
2018-05-14T01:51:06.979Z,100589.99
2018-05-14T01:56:01.090Z,100593.44
2018-05-14T02:00:55.540Z,100598.53
2018-05-14T02:05:50.752Z,100603.16
2018-05-14T02:10:45.274Z,100601.43
2018-05-14T02:15:50.038Z,100597.55
2018-05-14T02:20:44.421Z,100586.16
2018-05-14T02:25:39.592Z,100578.83
2018-05-14T02:30:34.053Z,100573.11
2018-05-14T02:35:29.240Z,100581.22
2018-05-14T02:40:23.851Z,100587.95
2018-05-14T02:45:18.240Z,100585.41
2018-05-14T02:50:13.646Z,100589.91
2018-05-14T02:55:08.026Z,100587.38
2018-05-14T03:00:02.531Z,100582.91
2018-05-14T03:10:25.816Z,100577.93
2018-05-14T03:15:20.959Z,100571.63
2018-05-14T03:20:16.081Z,100572.52
2018-05-14T03:25:10.484Z,100574.52
2018-05-14T03:30:05.448Z,100569.66
2018-05-14T03:34:59.840Z,100569.86
2018-05-14T03:39:54.204Z,100563.31
2018-05-14T03:44:49.362Z,100560.27
2018-05-14T03:49:43.754Z,100562.89
2018-05-14T03:54:38.126Z,100555.45
2018-05-14T03:59:50.192Z,100545.59
2018-05-14T04:05:01.554Z,100552.35
2018-05-14T04:09:56.672Z,100547.14
2018-05-14T04:15:08.223Z,100561.16
2018-05-14T04:20:14.598Z,100560.47
2018-05-14T04:25:09.060Z,100559.88
2018-05-14T04:30:03.953Z,100574.64
2018-05-14T04:34:59.917Z,100565.91
2018-05-14T04:40:08.382Z,100564.38
2018-05-14T04:45:14.362Z,100556.43
2018-05-14T04:50:08.981Z,100559.33
2018-05-14T04:55:05.132Z,100557.20
2018-05-14T04:59:59.494Z,100550.89
2018-05-14T05:04:53.862Z,100562.00
2018-05-14T05:09:59.540Z,100568.97
2018-05-14T05:14:54.680Z,100565.28
2018-05-14T05:19:50.013Z,100571.30
2018-05-14T05:24:44.754Z,100576.09
2018-05-14T05:29:39.274Z,100569.56
2018-05-14T05:34:34.034Z,100568.64
2018-05-14T05:39:28.550Z,100559.70
2018-05-14T05:44:22.934Z,100561.77
2018-05-14T05:49:17.862Z,100560.70
2018-05-14T05:54:12.213Z,100565.81
2018-05-14T05:59:06.709Z,100562.86
2018-05-14T06:04:01.144Z,100565.20
2018-05-14T06:08:55.556Z,100560.49
2018-05-14T06:13:50.715Z,100563.84
2018-05-14T06:18:48.141Z,100566.27
2018-05-14T06:23:42.522Z,100578.50
2018-05-14T06:28:36.915Z,100587.38
2018-05-14T06:33:31.286Z,100585.38
2018-05-14T06:38:25.682Z,100588.25
2018-05-14T06:43:20.083Z,100608.05
2018-05-14T06:48:15.340Z,100600.00
2018-05-14T06:53:09.762Z,100599.19
2018-05-14T06:58:04.137Z,100596.10
2018-05-14T07:02:58.538Z,100593.05
2018-05-14T07:07:52.888Z,100600.52
2018-05-14T07:12:47.452Z,100619.70
2018-05-14T07:17:41.806Z,100623.01
2018-05-14T07:22:37.000Z,100615.87
2018-05-14T07:27:31.400Z,100615.55
2018-05-14T07:32:25.780Z,100617.67
2018-05-14T07:37:20.229Z,100612.10
2018-05-14T07:42:15.626Z,100620.07
2018-05-14T07:47:10.036Z,100609.73
2018-05-14T07:52:05.348Z,100618.17
2018-05-14T07:56:59.940Z,100608.88
2018-05-14T08:01:55.152Z,100618.70
2018-05-14T08:06:49.608Z,100620.61
2018-05-14T08:11:44.132Z,100619.20
2018-05-14T08:16:38.652Z,100608.07
2018-05-14T08:21:33.804Z,100610.34
2018-05-14T08:26:28.214Z,100612.42
2018-05-14T08:31:22.645Z,100613.67
2018-05-14T08:36:17.263Z,100605.22
2018-05-14T08:41:11.642Z,100610.86
2018-05-14T08:46:06.254Z,100601.86
2018-05-14T08:51:00.625Z,100613.24
2018-05-14T08:55:55.351Z,100612.14
2018-05-14T09:00:49.859Z,100602.02
2018-05-14T09:05:44.371Z,100597.14
2018-05-14T09:10:38.767Z,100599.55
2018-05-14T09:15:33.446Z,100597.04
2018-05-14T09:20:28.096Z,100600.53
2018-05-14T09:25:22.911Z,100607.03
2018-05-14T09:30:17.608Z,100611.75
2018-05-14T09:35:12.478Z,100607.22
2018-05-14T09:40:07.148Z,100599.14
2018-05-14T09:45:02.005Z,100602.18
2018-05-14T09:49:56.692Z,100589.06
2018-05-14T09:54:51.366Z,100585.45
2018-05-14T09:59:46.075Z,100590.28
2018-05-14T10:04:40.732Z,100586.80
2018-05-14T10:09:35.901Z,100587.14
2018-05-14T10:14:30.282Z,100589.17
2018-05-14T10:19:24.654Z,100579.75
2018-05-14T10:24:19.913Z,100581.81
2018-05-14T10:29:14.342Z,100579.48
2018-05-14T10:34:08.718Z,100585.92
2018-05-14T10:39:03.103Z,100578.29
2018-05-14T10:43:58.463Z,100583.99
2018-05-14T10:48:53.614Z,100572.19
2018-05-14T10:53:47.769Z,100576.48
2018-05-14T10:58:42.262Z,100580.48
2018-05-14T11:03:36.803Z,100573.78
2018-05-14T11:08:31.173Z,100569.48
2018-05-14T11:13:25.539Z,100564.45
2018-05-14T11:18:20.173Z,100567.83
2018-05-14T11:23:15.335Z,100572.64
2018-05-14T11:28:09.733Z,100571.75
2018-05-14T11:33:04.141Z,100568.41
2018-05-14T11:37:58.545Z,100574.15
2018-05-14T11:42:53.148Z,100572.64
2018-05-14T11:47:47.508Z,100563.96
2018-05-14T11:52:43.015Z,100560.43
2018-05-14T11:57:37.175Z,100558.42
2018-05-14T12:02:31.619Z,100564.04
2018-05-14T12:07:39.786Z,100566.31
2018-05-14T12:12:48.447Z,100563.80
2018-05-14T12:17:56.737Z,100561.25
2018-05-14T12:23:06.135Z,100556.63
2018-05-14T12:28:01.351Z,100541.62
2018-05-14T12:32:55.830Z,100547.29
2018-05-14T12:37:50.190Z,100551.88
2018-05-14T12:42:44.750Z,100542.24
2018-05-14T12:47:39.110Z,100547.12
2018-05-14T12:52:34.305Z,100540.06
2018-05-14T12:57:28.661Z,100529.79
2018-05-14T13:02:24.441Z,100530.23
2018-05-14T13:07:19.371Z,100520.08
2018-05-14T13:12:13.894Z,100516.64
2018-05-14T13:17:08.759Z,100530.18
2018-05-14T13:22:03.169Z,100524.22
2018-05-14T13:26:57.866Z,100527.80
2018-05-14T13:31:51.993Z,100531.41
2018-05-14T13:36:46.533Z,100527.63
2018-05-14T13:41:41.106Z,100513.02
2018-05-14T13:46:35.469Z,100518.02
2018-05-14T13:51:30.627Z,100512.49
2018-05-14T13:56:25.239Z,100498.42
2018-05-14T14:01:19.925Z,100499.29
2018-05-14T14:06:27.282Z,100498.92
2018-05-14T14:11:22.498Z,100499.01
2018-05-14T14:16:17.081Z,100494.86
2018-05-14T14:21:11.451Z,100481.39
2018-05-14T14:26:06.601Z,100492.66
2018-05-14T14:31:00.994Z,100483.41
2018-05-14T14:35:55.749Z,100486.09
2018-05-14T14:40:50.644Z,100485.14
2018-05-14T14:45:45.472Z,100477.33
2018-05-14T14:50:39.859Z,100490.91
2018-05-14T14:55:34.227Z,100483.33
2018-05-14T15:00:29.409Z,100477.25
2018-05-14T15:05:24.693Z,100483.98
2018-05-14T15:10:19.118Z,100474.95
2018-05-14T15:15:13.538Z,100475.86
2018-05-14T15:20:08.303Z,100478.70
2018-05-14T15:25:02.836Z,100456.06
2018-05-14T15:29:57.466Z,100477.10
2018-05-14T15:34:59.271Z,100479.91
2018-05-14T15:40:07.297Z,100479.12
2018-05-14T15:45:15.711Z,100467.16
2018-05-14T15:50:23.460Z,100464.41
2018-05-14T15:55:31.935Z,100461.05
2018-05-14T16:00:41.709Z,100450.50
2018-05-14T16:05:46.028Z,100453.53
2018-05-14T16:10:47.792Z,100456.28
2018-05-14T16:15:42.204Z,100470.54
2018-05-14T16:20:51.453Z,100485.16
2018-05-14T16:25:46.095Z,100484.52
2018-05-14T16:30:40.542Z,100487.13
2018-05-14T16:35:34.950Z,100486.93
2018-05-14T16:40:43.942Z,100489.27
2018-05-14T16:45:45.626Z,100492.97
2018-05-14T16:50:41.138Z,100506.31
2018-05-14T16:55:35.645Z,100502.23
2018-05-14T17:00:30.028Z,100499.11
2018-05-14T17:05:25.176Z,100503.56
2018-05-14T17:10:19.616Z,100497.06
2018-05-14T17:15:14.921Z,100501.37
2018-05-14T17:20:09.295Z,100500.67
2018-05-14T17:25:04.274Z,100494.66
2018-05-14T17:30:03.643Z,100499.58
2018-05-14T17:34:58.028Z,100505.50
2018-05-14T17:39:53.174Z,100509.92
2018-05-14T17:44:47.715Z,100513.10
2018-05-14T17:49:42.144Z,100511.77
2018-05-14T17:54:36.528Z,100514.42
2018-05-14T17:59:30.965Z,100516.47
2018-05-14T18:04:26.244Z,100518.14
2018-05-14T18:09:20.594Z,100528.26
2018-05-14T18:14:15.728Z,100524.34
2018-05-14T18:19:10.843Z,100527.63
2018-05-14T18:24:05.976Z,100526.52
2018-05-14T18:29:06.142Z,100524.23
2018-05-14T18:34:05.740Z,100527.80
2018-05-14T18:39:00.141Z,100537.62
2018-05-14T18:44:10.041Z,100547.88
2018-05-14T18:49:04.558Z,100552.67
2018-05-14T18:53:59.278Z,100561.18
2018-05-14T18:58:53.638Z,100563.00
2018-05-14T19:03:48.453Z,100571.53
2018-05-14T19:08:42.839Z,100582.05
2018-05-14T19:13:37.962Z,100583.09
2018-05-14T19:18:32.590Z,100584.40
2018-05-14T19:23:32.332Z,100590.09
2018-05-14T19:28:32.143Z,100591.94
2018-05-14T19:33:31.804Z,100597.05
2018-05-14T19:38:26.308Z,100604.30
2018-05-14T19:43:20.460Z,100616.06
2018-05-14T19:48:15.623Z,100622.22
2018-05-14T19:53:09.987Z,100628.42
2018-05-14T19:58:05.596Z,100632.03
2018-05-14T20:03:00.016Z,100637.70
2018-05-14T20:08:08.066Z,100641.90
2018-05-14T20:13:13.180Z,100647.67
2018-05-14T20:18:07.536Z,100653.52
2018-05-14T20:23:01.901Z,100650.72
2018-05-14T20:27:57.152Z,100660.89
2018-05-14T20:32:51.685Z,100666.96
2018-05-14T20:37:46.331Z,100664.94
2018-05-14T20:42:41.603Z,100669.00
2018-05-14T20:47:36.098Z,100678.06
2018-05-14T20:52:30.678Z,100687.38
2018-05-14T20:57:26.008Z,100693.73
2018-05-14T21:02:21.110Z,100704.53
2018-05-14T21:07:16.421Z,100707.14
2018-05-14T21:12:11.725Z,100711.59
2018-05-14T21:17:06.400Z,100716.55
2018-05-14T21:22:00.771Z,100725.36
2018-05-14T21:27:12.592Z,100728.84
2018-05-14T21:32:17.990Z,100735.14
2018-05-14T21:37:25.976Z,100744.65
2018-05-14T21:42:30.427Z,100748.72
2018-05-14T21:47:34.264Z,100748.73
2018-05-14T21:52:47.706Z,100744.84
2018-05-14T21:57:50.006Z,100751.98
2018-05-14T22:02:56.050Z,100751.20
2018-05-14T22:07:58.588Z,100757.41
2018-05-14T22:13:13.833Z,100748.97
2018-05-14T22:18:23.470Z,100749.76
2018-05-14T22:23:33.327Z,100755.42
2018-05-14T22:28:40.888Z,100754.95
2018-05-14T22:33:51.248Z,100764.98
2018-05-14T22:39:01.076Z,100768.95
2018-05-14T22:44:10.254Z,100768.03
2018-05-14T22:49:04.743Z,100770.66
2018-05-14T22:53:59.158Z,100771.28
2018-05-14T22:58:53.502Z,100769.44
2018-05-14T23:03:47.891Z,100772.66
2018-05-14T23:08:42.357Z,100769.20
2018-05-14T23:13:36.756Z,100770.45
2018-05-14T23:18:31.138Z,100762.16
2018-05-14T23:23:26.310Z,100761.64
2018-05-14T23:28:20.662Z,100764.72
2018-05-14T23:33:14.985Z,100766.17
2018-05-14T23:38:09.329Z,100762.37
2018-05-14T23:43:03.671Z,100758.55
2018-05-14T23:47:58.010Z,100768.17
2018-05-14T23:52:52.372Z,100763.25
2018-05-14T23:57:46.715Z,100757.91
